createdAt,value
2023-04-26T00:02:27.900Z,100.00
2023-04-26T00:04:59.209Z,100.00
2023-04-26T00:07:25.946Z,100.00
2023-04-26T00:09:52.856Z,100.00
2023-04-26T00:12:19.675Z,100.00
2023-04-26T00:14:46.245Z,100.00
2023-04-26T00:17:12.850Z,100.00
2023-04-26T00:19:39.798Z,100.00
2023-04-26T00:22:06.631Z,100.00
2023-04-26T00:24:33.395Z,100.00
2023-04-26T00:27:00.711Z,100.00
2023-04-26T00:29:27.645Z,100.00
2023-04-26T00:31:54.332Z,100.00
2023-04-26T00:34:21.204Z,100.00
2023-04-26T00:36:47.959Z,100.00
2023-04-26T00:39:14.552Z,100.00
2023-04-26T00:41:41.133Z,100.00
2023-04-26T00:44:07.784Z,100.00
2023-04-26T00:46:34.413Z,100.00
2023-04-26T00:49:00.976Z,100.00
2023-04-26T00:51:28.308Z,100.00
2023-04-26T00:53:55.203Z,100.00
2023-04-26T00:56:24.304Z,100.00
2023-04-26T00:58:51.147Z,100.00
2023-04-26T01:01:18.060Z,100.00
2023-04-26T01:03:46.937Z,100.00
2023-04-26T01:06:13.759Z,100.00
2023-04-26T01:08:40.629Z,100.00
2023-04-26T01:11:07.427Z,100.00
2023-04-26T01:13:34.338Z,100.00
2023-04-26T01:16:02.216Z,100.00
2023-04-26T01:18:29.013Z,100.00
2023-04-26T01:20:56.921Z,100.00
2023-04-26T01:23:23.507Z,100.00
2023-04-26T01:25:50.174Z,100.00
2023-04-26T01:28:16.776Z,100.00
2023-04-26T01:30:43.633Z,100.00
2023-04-26T01:33:10.272Z,100.00
2023-04-26T01:35:36.836Z,100.00
2023-04-26T01:38:04.423Z,100.00
2023-04-26T01:40:30.982Z,100.00
2023-04-26T01:42:57.691Z,100.00
2023-04-26T01:45:24.310Z,100.00
2023-04-26T01:47:51.017Z,100.00
2023-04-26T01:50:17.699Z,100.00
2023-04-26T01:52:44.397Z,100.00
2023-04-26T01:55:11.071Z,100.00
2023-04-26T01:57:37.648Z,100.00
2023-04-26T02:00:05.056Z,100.00
2023-04-26T02:02:31.639Z,100.00
2023-04-26T02:04:58.238Z,100.00
2023-04-26T02:07:24.888Z,100.00
2023-04-26T02:09:51.565Z,100.00
2023-04-26T02:12:18.162Z,100.00
2023-04-26T02:14:44.732Z,100.00
2023-04-26T02:17:11.311Z,100.00
2023-04-26T02:19:37.887Z,100.00
2023-04-26T02:22:06.306Z,100.00
2023-04-26T02:24:33.534Z,100.00
2023-04-26T02:27:03.840Z,100.00
2023-04-26T02:29:43.582Z,100.00
2023-04-26T02:32:11.363Z,100.00
2023-04-26T02:34:37.935Z,100.00
2023-04-26T02:37:04.691Z,100.00
2023-04-26T02:39:31.618Z,100.00
2023-04-26T02:41:58.260Z,100.00
2023-04-26T02:44:25.015Z,100.00
2023-04-26T02:46:51.737Z,100.00
2023-04-26T02:49:18.349Z,100.00
2023-04-26T02:51:44.893Z,100.00
2023-04-26T02:54:11.466Z,100.00
2023-04-26T02:56:38.046Z,100.00
2023-04-26T02:59:04.638Z,100.00
2023-04-26T03:01:31.256Z,100.00
2023-04-26T03:03:57.966Z,100.00
2023-04-26T03:06:24.582Z,100.00
2023-04-26T03:08:51.316Z,100.00
2023-04-26T03:11:18.076Z,100.00
2023-04-26T03:13:44.689Z,100.00
2023-04-26T03:16:11.771Z,100.00
2023-04-26T03:18:38.410Z,100.00
2023-04-26T03:21:05.062Z,100.00
2023-04-26T03:23:31.695Z,100.00
2023-04-26T03:25:58.861Z,100.00
2023-04-26T03:28:25.460Z,100.00
2023-04-26T03:30:52.084Z,100.00
2023-04-26T03:33:18.741Z,100.00
2023-04-26T03:35:45.359Z,100.00
2023-04-26T03:38:12.082Z,100.00
2023-04-26T03:40:38.689Z,100.00
2023-04-26T03:43:05.346Z,100.00
2023-04-26T03:45:31.888Z,100.00
2023-04-26T03:47:58.463Z,100.00
2023-04-26T03:50:25.175Z,100.00
2023-04-26T03:52:51.752Z,100.00
2023-04-26T03:55:18.411Z,100.00
2023-04-26T03:57:44.946Z,100.00
2023-04-26T04:00:13.841Z,100.00
2023-04-26T04:02:42.326Z,100.00
2023-04-26T04:05:09.550Z,100.00
2023-04-26T04:07:36.258Z,100.00
2023-04-26T04:10:02.836Z,100.00
2023-04-26T04:12:29.403Z,100.00
2023-04-26T04:14:56.343Z,100.00
2023-04-26T04:17:23.028Z,100.00
2023-04-26T04:19:49.636Z,100.00
2023-04-26T04:22:16.208Z,100.00
2023-04-26T04:24:44.302Z,100.00
2023-04-26T04:27:11.619Z,100.00
2023-04-26T04:29:38.433Z,100.00
2023-04-26T04:32:05.285Z,100.00
2023-04-26T04:34:36.124Z,100.00
2023-04-26T04:37:04.350Z,100.00
2023-04-26T04:39:31.142Z,97.72
2023-04-26T04:41:58.478Z,96.99
2023-04-26T04:44:26.977Z,96.18
2023-04-26T04:46:53.832Z,96.01
2023-04-26T04:49:20.922Z,94.64
2023-04-26T04:51:47.926Z,94.28
2023-04-26T04:54:16.600Z,94.90
2023-04-26T04:56:43.911Z,93.69
2023-04-26T04:59:11.618Z,92.53
2023-04-26T05:01:38.780Z,93.09
2023-04-26T05:04:06.968Z,95.52
2023-04-26T05:06:33.815Z,94.56
2023-04-26T05:09:01.475Z,94.88
2023-04-26T05:11:28.220Z,92.79
2023-04-26T05:13:54.896Z,93.43
2023-04-26T05:16:21.715Z,91.52
2023-04-26T05:18:48.383Z,90.13
2023-04-26T05:21:15.072Z,87.99
2023-04-26T05:23:41.991Z,88.54
2023-04-26T05:26:14.534Z,88.79
2023-04-26T05:28:41.492Z,88.43
2023-04-26T05:31:11.744Z,86.18
2023-04-26T05:33:38.536Z,86.23
2023-04-26T05:36:05.857Z,84.64
2023-04-26T05:38:32.526Z,83.21
2023-04-26T05:40:59.188Z,81.71
2023-04-26T05:43:25.830Z,82.90
2023-04-26T05:45:56.726Z,82.06
2023-04-26T05:48:24.818Z,82.93
2023-04-26T05:50:52.503Z,82.00
2023-04-26T05:53:19.853Z,82.38
2023-04-26T05:55:46.607Z,79.26
2023-04-26T05:58:13.279Z,78.33
2023-04-26T06:00:41.126Z,79.96
2023-04-26T06:03:07.933Z,80.80
2023-04-26T06:05:38.274Z,81.24
2023-04-26T06:08:05.492Z,82.59
2023-04-26T06:10:32.115Z,81.92
2023-04-26T06:12:58.754Z,82.54
2023-04-26T06:15:25.528Z,79.20
2023-04-26T06:17:52.116Z,77.74
2023-04-26T06:20:18.730Z,77.80
2023-04-26T06:22:45.276Z,77.02
2023-04-26T06:25:11.914Z,77.57
2023-04-26T06:27:39.287Z,77.06
2023-04-26T06:30:07.914Z,76.47
2023-04-26T06:32:34.741Z,77.09
2023-04-26T06:35:01.722Z,75.01
2023-04-26T06:37:28.513Z,74.21
2023-04-26T06:39:55.091Z,73.74
2023-04-26T06:42:22.516Z,72.98
2023-04-26T06:44:49.414Z,71.03
2023-04-26T06:47:15.976Z,67.88
2023-04-26T06:49:42.899Z,65.59
2023-04-26T06:52:09.695Z,66.15
2023-04-26T06:54:45.907Z,68.27
2023-04-26T06:57:16.790Z,62.22
2023-04-26T06:59:43.377Z,63.14
2023-04-26T07:02:10.003Z,61.56
2023-04-26T07:04:36.939Z,65.47
2023-04-26T07:07:03.865Z,65.32
2023-04-26T07:09:30.702Z,63.35
2023-04-26T07:11:57.486Z,65.91
2023-04-26T07:14:24.775Z,66.67
2023-04-26T07:16:51.387Z,64.00
2023-04-26T07:19:18.331Z,63.43
2023-04-26T07:21:44.969Z,68.93
2023-04-26T07:24:13.616Z,59.33
2023-04-26T07:26:41.607Z,61.97
2023-04-26T07:29:08.368Z,58.83
2023-04-26T07:31:35.884Z,60.63
2023-04-26T07:34:02.457Z,61.55
2023-04-26T07:36:29.131Z,61.29
2023-04-26T07:38:55.765Z,64.85
2023-04-26T07:41:22.377Z,66.44
2023-04-26T07:43:49.252Z,67.82
2023-04-26T07:46:16.104Z,65.08
2023-04-26T07:48:42.727Z,63.06
2023-04-26T07:51:11.095Z,64.13
2023-04-26T07:53:38.639Z,63.91
2023-04-26T07:56:07.934Z,60.15
2023-04-26T07:58:39.399Z,58.20
2023-04-26T08:01:06.684Z,55.87
2023-04-26T08:03:33.697Z,57.91
2023-04-26T08:06:01.315Z,55.66
2023-04-26T08:08:28.816Z,57.31
2023-04-26T08:10:55.844Z,58.65
2023-04-26T08:13:22.730Z,58.20
2023-04-26T08:15:49.395Z,55.23
2023-04-26T08:18:16.060Z,56.09
2023-04-26T08:20:42.854Z,53.03
2023-04-26T08:23:09.703Z,53.46
2023-04-26T08:25:36.508Z,53.32
2023-04-26T08:28:03.239Z,51.27
2023-04-26T08:30:29.950Z,52.37
2023-04-26T08:32:56.787Z,50.42
2023-04-26T08:35:23.498Z,50.99
2023-04-26T08:37:50.300Z,50.94
2023-04-26T08:40:23.723Z,51.05
2023-04-26T08:42:50.304Z,52.90
2023-04-26T08:45:17.203Z,54.73
2023-04-26T08:47:47.260Z,56.29
2023-04-26T08:50:15.875Z,58.80
2023-04-26T08:52:43.341Z,60.55
2023-04-26T08:55:10.883Z,61.81
2023-04-26T08:57:38.136Z,61.40
2023-04-26T09:00:06.510Z,60.29
2023-04-26T09:02:34.484Z,60.71
2023-04-26T09:05:01.346Z,58.89
2023-04-26T09:07:32.893Z,62.42
2023-04-26T09:10:00.961Z,62.52
2023-04-26T09:12:27.646Z,61.74
2023-04-26T09:14:54.423Z,60.47
2023-04-26T09:17:32.446Z,60.99
2023-04-26T09:20:00.262Z,61.08
2023-04-26T09:22:34.609Z,59.92
2023-04-26T09:25:05.724Z,58.39
2023-04-26T09:27:37.455Z,58.50
2023-04-26T09:30:09.598Z,55.58
2023-04-26T09:32:57.650Z,56.12
2023-04-26T09:35:34.278Z,58.69
2023-04-26T09:38:07.930Z,61.12
2023-04-26T09:40:41.079Z,63.08
2023-04-26T09:43:08.955Z,59.01
2023-04-26T09:46:02.033Z,61.44
2023-04-26T09:48:34.708Z,63.46
2023-04-26T09:51:04.026Z,63.24
2023-04-26T09:53:36.962Z,62.87
2023-04-26T09:56:07.525Z,62.55
2023-04-26T09:58:35.004Z,59.90
2023-04-26T10:01:03.629Z,60.21
2023-04-26T10:03:32.525Z,60.80
2023-04-26T10:05:59.416Z,60.34
2023-04-26T10:08:26.373Z,58.07
2023-04-26T10:10:54.368Z,55.73
2023-04-26T10:13:21.864Z,55.08
2023-04-26T10:15:49.177Z,55.88
2023-04-26T10:18:16.035Z,57.90
2023-04-26T10:20:46.317Z,57.27
2023-04-26T10:23:21.153Z,56.23
2023-04-26T10:25:48.453Z,54.82
2023-04-26T10:28:16.274Z,55.56
2023-04-26T10:31:00.005Z,56.57
2023-04-26T10:33:27.317Z,58.02
2023-04-26T10:36:08.170Z,57.91
2023-04-26T10:38:37.238Z,57.31
2023-04-26T10:41:29.266Z,56.08
2023-04-26T10:43:56.228Z,54.98
2023-04-26T10:46:40.086Z,53.33
2023-04-26T10:49:17.169Z,54.66
2023-04-26T10:52:12.825Z,54.80
2023-04-26T10:54:59.365Z,54.81
2023-04-26T10:57:47.528Z,53.11
2023-04-26T11:00:26.809Z,51.86
2023-04-26T11:02:58.103Z,50.82
2023-04-26T11:05:55.974Z,52.85
2023-04-26T11:08:32.072Z,52.38
2023-04-26T11:11:05.070Z,51.82
2023-04-26T11:13:42.251Z,53.14
2023-04-26T11:16:18.874Z,50.69
2023-04-26T11:18:46.795Z,49.72
2023-04-26T11:21:17.832Z,51.22
2023-04-26T11:23:53.985Z,51.47
2023-04-26T11:26:20.631Z,53.22
2023-04-26T11:28:49.493Z,54.35
2023-04-26T11:31:19.054Z,53.48
2023-04-26T11:33:46.786Z,53.85
2023-04-26T11:36:14.803Z,54.13
2023-04-26T11:38:41.393Z,52.68
2023-04-26T11:41:08.103Z,53.06
2023-04-26T11:43:39.236Z,53.23
2023-04-26T11:46:07.492Z,52.32
2023-04-26T11:48:38.826Z,50.81
2023-04-26T11:51:07.565Z,50.23
2023-04-26T11:53:42.099Z,49.39
2023-04-26T11:56:18.478Z,50.34
2023-04-26T11:58:51.052Z,56.12
2023-04-26T12:01:23.639Z,56.58
2023-04-26T12:03:52.288Z,58.19
2023-04-26T12:06:19.377Z,58.56
2023-04-26T12:08:52.414Z,57.76
2023-04-26T12:11:19.264Z,58.60
2023-04-26T12:13:47.539Z,58.81
2023-04-26T12:16:25.692Z,57.52
2023-04-26T12:18:57.120Z,57.30
2023-04-26T12:21:25.186Z,57.41
2023-04-26T12:23:52.269Z,58.21
2023-04-26T12:26:20.619Z,57.30
2023-04-26T12:28:47.339Z,57.50
2023-04-26T12:31:14.065Z,56.98
2023-04-26T12:33:40.954Z,56.62
2023-04-26T12:36:09.684Z,55.49
2023-04-26T12:38:36.540Z,54.89
2023-04-26T12:41:03.524Z,54.12
2023-04-26T12:43:30.396Z,53.58
2023-04-26T12:45:57.325Z,53.84
2023-04-26T12:48:23.956Z,53.26
2023-04-26T12:50:51.427Z,52.63
2023-04-26T12:53:18.762Z,52.63
2023-04-26T12:55:45.421Z,52.56
2023-04-26T12:58:12.238Z,52.44
2023-04-26T13:00:39.005Z,52.34
2023-04-26T13:03:05.801Z,53.44
2023-04-26T13:05:32.544Z,51.92
2023-04-26T13:08:02.174Z,52.12
2023-04-26T13:10:29.017Z,52.34
2023-04-26T13:12:55.999Z,52.25
2023-04-26T13:15:24.831Z,52.62
2023-04-26T13:17:51.568Z,52.06
2023-04-26T13:20:18.364Z,52.14
2023-04-26T13:22:44.998Z,53.38
2023-04-26T13:25:13.222Z,54.33
2023-04-26T13:27:39.882Z,54.58
2023-04-26T13:30:07.329Z,55.22
2023-04-26T13:32:34.172Z,56.22
2023-04-26T13:35:00.807Z,56.29
2023-04-26T13:37:27.778Z,56.41
2023-04-26T13:39:54.528Z,56.19
2023-04-26T13:42:21.342Z,57.57
2023-04-26T13:44:47.966Z,57.49
2023-04-26T13:47:15.666Z,57.11
2023-04-26T13:49:42.737Z,58.56
2023-04-26T13:52:09.367Z,56.67
2023-04-26T13:54:36.835Z,58.06
2023-04-26T13:57:04.065Z,56.19
2023-04-26T13:59:30.773Z,54.70
2023-04-26T14:01:59.057Z,53.34
2023-04-26T14:04:26.423Z,52.70
2023-04-26T14:06:53.091Z,51.77
2023-04-26T14:09:19.700Z,51.82
2023-04-26T14:11:49.450Z,51.62
2023-04-26T14:14:20.794Z,51.41
2023-04-26T14:16:47.548Z,50.18
2023-04-26T14:19:15.841Z,51.55
2023-04-26T14:21:42.613Z,49.79
2023-04-26T14:24:09.268Z,49.48
2023-04-26T14:26:36.042Z,49.75
2023-04-26T14:29:02.742Z,49.86
2023-04-26T14:31:30.464Z,49.82
2023-04-26T14:33:57.225Z,49.84
2023-04-26T14:36:24.283Z,49.41
2023-04-26T14:38:51.174Z,48.92
2023-04-26T14:41:19.138Z,48.64
2023-04-26T14:43:48.977Z,48.76
2023-04-26T14:46:15.874Z,49.34
2023-04-26T14:48:43.924Z,50.48
2023-04-26T14:51:11.129Z,49.51
2023-04-26T14:53:38.709Z,50.16
2023-04-26T14:56:07.691Z,48.32
2023-04-26T14:58:34.709Z,47.61
2023-04-26T15:01:02.533Z,47.83
2023-04-26T15:03:29.489Z,48.29
2023-04-26T15:05:56.387Z,46.86
2023-04-26T15:08:23.025Z,45.56
2023-04-26T15:10:49.735Z,46.08
2023-04-26T15:13:16.799Z,45.10
2023-04-26T15:15:43.547Z,44.08
2023-04-26T15:18:10.263Z,44.36
2023-04-26T15:20:40.329Z,46.44
2023-04-26T15:23:07.801Z,48.52
2023-04-26T15:25:36.539Z,49.35
2023-04-26T15:28:04.163Z,50.65
2023-04-26T15:30:30.797Z,50.67
2023-04-26T15:32:57.768Z,48.78
2023-04-26T15:35:25.140Z,47.54
2023-04-26T15:37:53.829Z,49.38
2023-04-26T15:40:21.377Z,49.83
2023-04-26T15:42:49.236Z,50.35
2023-04-26T15:45:15.912Z,52.33
2023-04-26T15:47:42.725Z,52.77
2023-04-26T15:50:09.821Z,53.16
2023-04-26T15:52:39.250Z,52.89
2023-04-26T15:55:10.474Z,52.38
2023-04-26T15:57:37.710Z,52.02
2023-04-26T16:00:08.382Z,51.52
2023-04-26T16:02:35.100Z,50.52
2023-04-26T16:05:01.992Z,52.23
2023-04-26T16:07:28.991Z,55.38
2023-04-26T16:09:55.659Z,56.63
2023-04-26T16:12:22.453Z,56.62
2023-04-26T16:14:49.402Z,55.31
2023-04-26T16:17:16.026Z,56.15
2023-04-26T16:19:42.622Z,54.73
2023-04-26T16:22:09.220Z,53.69
2023-04-26T16:24:35.946Z,52.42
2023-04-26T16:27:02.936Z,49.85
2023-04-26T16:29:40.390Z,48.43
2023-04-26T16:32:07.013Z,47.39
2023-04-26T16:34:33.619Z,48.01
2023-04-26T16:37:00.204Z,48.21
2023-04-26T16:39:28.312Z,49.54
2023-04-26T16:41:54.944Z,48.88
2023-04-26T16:44:21.615Z,50.18
2023-04-26T16:46:48.192Z,50.72
2023-04-26T16:49:14.788Z,51.24
2023-04-26T16:51:44.262Z,51.16
2023-04-26T16:54:10.946Z,50.65
2023-04-26T16:56:37.574Z,51.46
2023-04-26T16:59:04.544Z,51.25
2023-04-26T17:01:31.225Z,51.64
2023-04-26T17:03:58.254Z,49.18
2023-04-26T17:06:24.934Z,48.73
2023-04-26T17:08:51.637Z,48.82
2023-04-26T17:11:18.566Z,49.40
2023-04-26T17:13:45.250Z,49.86
2023-04-26T17:16:12.205Z,49.33
2023-04-26T17:18:38.856Z,49.89
2023-04-26T17:21:05.861Z,50.20
2023-04-26T17:23:33.804Z,49.48
2023-04-26T17:26:01.273Z,49.97
2023-04-26T17:28:27.979Z,50.05
2023-04-26T17:30:54.579Z,50.40
2023-04-26T17:33:21.343Z,50.46
2023-04-26T17:35:48.029Z,50.91
2023-04-26T17:38:14.580Z,51.61
2023-04-26T17:40:41.230Z,51.04
2023-04-26T17:43:07.827Z,51.45
2023-04-26T17:45:34.551Z,50.66
2023-04-26T17:48:01.282Z,53.20
2023-04-26T17:50:28.650Z,53.11
2023-04-26T17:52:55.304Z,53.91
2023-04-26T17:55:22.056Z,50.94
2023-04-26T17:57:48.741Z,49.89
2023-04-26T18:00:15.848Z,49.36
2023-04-26T18:02:43.246Z,49.59
2023-04-26T18:05:10.347Z,50.86
2023-04-26T18:07:36.949Z,51.48
2023-04-26T18:10:04.324Z,51.24
2023-04-26T18:12:32.206Z,49.51
2023-04-26T18:14:59.018Z,49.32
2023-04-26T18:17:25.848Z,49.46
2023-04-26T18:19:52.659Z,49.92
2023-04-26T18:22:19.447Z,49.94
2023-04-26T18:24:46.939Z,49.60
2023-04-26T18:27:14.149Z,49.40
2023-04-26T18:29:41.376Z,50.09
2023-04-26T18:32:08.275Z,50.80
2023-04-26T18:34:35.243Z,50.75
2023-04-26T18:37:01.861Z,50.77
2023-04-26T18:39:28.587Z,50.55
2023-04-26T18:41:55.298Z,52.01
2023-04-26T18:44:21.992Z,50.56
2023-04-26T18:46:48.840Z,51.59
2023-04-26T18:49:15.570Z,51.39
2023-04-26T18:51:42.173Z,51.20
2023-04-26T18:54:08.957Z,50.50
2023-04-26T18:56:37.620Z,50.65
2023-04-26T18:59:04.606Z,51.55
2023-04-26T19:01:31.362Z,52.17
2023-04-26T19:03:58.605Z,49.89
2023-04-26T19:06:26.330Z,51.04
2023-04-26T19:08:53.223Z,50.22
2023-04-26T19:11:20.297Z,51.02
2023-04-26T19:13:47.552Z,50.67
2023-04-26T19:16:14.264Z,52.05
2023-04-26T19:18:41.168Z,52.40
2023-04-26T19:21:08.619Z,52.52
2023-04-26T19:23:36.007Z,52.58
2023-04-26T19:26:08.274Z,51.27
2023-04-26T19:28:35.997Z,51.17
2023-04-26T19:31:02.723Z,52.10
2023-04-26T19:33:29.830Z,52.34
2023-04-26T19:35:56.930Z,53.24
2023-04-26T19:38:24.551Z,52.52
2023-04-26T19:40:54.451Z,52.25
2023-04-26T19:43:21.218Z,53.32
2023-04-26T19:45:48.152Z,53.65
2023-04-26T19:48:15.222Z,53.77
2023-04-26T19:50:44.329Z,54.31
2023-04-26T19:53:13.224Z,55.87
2023-04-26T19:55:41.384Z,56.84
2023-04-26T19:58:08.875Z,57.44
2023-04-26T20:00:36.304Z,57.31
2023-04-26T20:03:03.243Z,58.12
2023-04-26T20:05:30.320Z,59.08
2023-04-26T20:07:57.580Z,58.74
2023-04-26T20:10:24.576Z,58.85
2023-04-26T20:12:52.000Z,58.46
2023-04-26T20:15:19.441Z,58.09
2023-04-26T20:17:46.775Z,59.44
2023-04-26T20:20:13.766Z,59.61
2023-04-26T20:22:41.724Z,58.81
2023-04-26T20:25:09.123Z,58.36
2023-04-26T20:27:36.071Z,59.08
2023-04-26T20:30:04.512Z,59.58
2023-04-26T20:32:31.250Z,60.17
2023-04-26T20:34:58.010Z,59.64
2023-04-26T20:37:24.833Z,59.24
2023-04-26T20:39:51.560Z,57.25
2023-04-26T20:42:18.242Z,58.45
2023-04-26T20:44:44.854Z,56.27
2023-04-26T20:47:11.550Z,55.04
2023-04-26T20:49:38.233Z,55.40
2023-04-26T20:52:05.295Z,56.09
2023-04-26T20:54:32.024Z,54.62
2023-04-26T20:56:58.708Z,54.20
2023-04-26T20:59:26.000Z,56.02
2023-04-26T21:01:53.133Z,56.23
2023-04-26T21:04:20.012Z,56.10
2023-04-26T21:06:46.746Z,54.88
2023-04-26T21:09:13.539Z,55.09
2023-04-26T21:11:40.237Z,56.24
2023-04-26T21:14:07.202Z,55.72
2023-04-26T21:16:33.970Z,56.36
2023-04-26T21:19:00.565Z,55.48
2023-04-26T21:21:28.680Z,54.40
2023-04-26T21:23:55.576Z,54.57
2023-04-26T21:26:22.273Z,54.49
2023-04-26T21:28:48.916Z,54.97
2023-04-26T21:31:15.659Z,56.82
2023-04-26T21:33:42.347Z,56.55
2023-04-26T21:36:09.258Z,56.60
2023-04-26T21:38:35.897Z,57.38
2023-04-26T21:41:02.553Z,55.12
2023-04-26T21:43:29.238Z,60.90
2023-04-26T21:45:58.067Z,59.89
2023-04-26T21:48:26.269Z,60.54
2023-04-26T21:50:53.220Z,57.57
2023-04-26T21:53:19.975Z,58.02
2023-04-26T21:55:54.001Z,59.94
2023-04-26T21:58:21.612Z,60.23
2023-04-26T22:00:49.007Z,60.22
2023-04-26T22:03:16.348Z,60.56
2023-04-26T22:05:43.250Z,60.04
2023-04-26T22:08:09.960Z,58.34
2023-04-26T22:10:36.702Z,59.43
2023-04-26T22:13:03.679Z,59.08
2023-04-26T22:15:30.876Z,59.19
2023-04-26T22:17:57.680Z,57.46
2023-04-26T22:20:24.512Z,58.59
2023-04-26T22:22:51.106Z,58.55
2023-04-26T22:25:17.693Z,61.66
2023-04-26T22:27:44.328Z,62.48
2023-04-26T22:30:22.735Z,61.93
2023-04-26T22:32:54.485Z,61.99
2023-04-26T22:35:22.086Z,62.47
2023-04-26T22:37:48.974Z,60.16
2023-04-26T22:40:16.219Z,60.52
2023-04-26T22:42:43.753Z,59.81
2023-04-26T22:45:11.980Z,62.01
2023-04-26T22:47:39.903Z,61.46
2023-04-26T22:50:07.723Z,60.96
2023-04-26T22:52:35.237Z,62.55
2023-04-26T22:55:02.084Z,62.68
2023-04-26T22:57:29.390Z,62.08
2023-04-26T22:59:56.099Z,61.39
2023-04-26T23:02:22.849Z,62.14
2023-04-26T23:04:49.564Z,61.15
2023-04-26T23:07:16.532Z,61.31
2023-04-26T23:09:43.302Z,61.28
2023-04-26T23:12:09.999Z,61.49
2023-04-26T23:14:37.873Z,61.85
2023-04-26T23:17:05.549Z,59.49
2023-04-26T23:19:33.112Z,59.98
2023-04-26T23:22:00.225Z,61.63
2023-04-26T23:24:27.095Z,61.23
2023-04-26T23:26:53.811Z,62.37
2023-04-26T23:29:20.661Z,64.41
2023-04-26T23:31:47.544Z,64.31
2023-04-26T23:34:14.334Z,64.44
2023-04-26T23:36:41.221Z,65.70
2023-04-26T23:39:08.799Z,67.11
2023-04-26T23:41:35.918Z,69.06
2023-04-26T23:44:02.536Z,69.38
2023-04-26T23:46:29.368Z,68.74
2023-04-26T23:48:56.145Z,68.54
2023-04-26T23:51:22.789Z,69.26
2023-04-26T23:53:49.453Z,68.34
2023-04-26T23:56:16.142Z,68.36
2023-04-26T23:58:42.728Z,67.81
